sensor_id;sensor_type;location;lat;lon;timestamp;P1;durP1;ratioP1;P2;durP2;ratioP2
50126;SDS011;36024;47.974;16.398;2022-11-06T01:09:43;6.27;;;3.80;;
50126;SDS011;36024;47.974;16.398;2022-11-06T01:12:10;8.10;;;5.23;;
50126;SDS011;36024;47.974;16.398;2022-11-06T01:14:39;5.47;;;4.40;;
50126;SDS011;36024;47.974;16.398;2022-11-06T01:17:06;5.03;;;4.13;;
50126;SDS011;36024;47.974;16.398;2022-11-06T01:19:34;6.07;;;4.20;;
50126;SDS011;36024;47.974;16.398;2022-11-06T01:48:25;6.80;;;5.27;;
50126;SDS011;36024;47.974;16.398;2022-11-06T01:50:54;5.60;;;4.67;;
50126;SDS011;36024;47.974;16.398;2022-11-06T01:53:22;6.00;;;5.00;;
50126;SDS011;36024;47.974;16.398;2022-11-06T01:55:50;7.10;;;4.73;;
50126;SDS011;36024;47.974;16.398;2022-11-06T01:58:20;7.37;;;5.00;;
50126;SDS011;36024;47.974;16.398;2022-11-06T02:04:08;6.67;;;4.90;;
50126;SDS011;36024;47.974;16.398;2022-11-06T02:06:37;6.60;;;5.10;;
50126;SDS011;36024;47.974;16.398;2022-11-06T02:09:04;7.47;;;5.83;;
50126;SDS011;36024;47.974;16.398;2022-11-06T02:11:40;5.73;;;5.13;;
50126;SDS011;36024;47.974;16.398;2022-11-06T02:14:17;7.10;;;5.13;;
50126;SDS011;36024;47.974;16.398;2022-11-06T02:16:50;9.10;;;5.40;;
50126;SDS011;36024;47.974;16.398;2022-11-06T02:24:59;6.23;;;5.30;;
50126;SDS011;36024;47.974;16.398;2022-11-06T02:27:32;7.07;;;5.60;;
50126;SDS011;36024;47.974;16.398;2022-11-06T02:32:39;8.73;;;6.10;;
50126;SDS011;36024;47.974;16.398;2022-11-06T02:35:29;7.93;;;5.97;;
50126;SDS011;36024;47.974;16.398;2022-11-06T02:38:06;9.47;;;6.07;;
50126;SDS011;36024;47.974;16.398;2022-11-06T02:40:37;6.67;;;5.97;;
50126;SDS011;36024;47.974;16.398;2022-11-06T02:43:08;8.70;;;6.10;;
50126;SDS011;36024;47.974;16.398;2022-11-06T02:45:38;8.50;;;6.30;;
50126;SDS011;36024;47.974;16.398;2022-11-06T02:48:10;7.57;;;6.10;;
50126;SDS011;36024;47.974;16.398;2022-11-06T02:50:39;8.47;;;5.67;;
50126;SDS011;36024;47.974;16.398;2022-11-06T02:53:09;7.63;;;6.10;;
50126;SDS011;36024;47.974;16.398;2022-11-06T02:55:38;9.27;;;5.63;;
50126;SDS011;36024;47.974;16.398;2022-11-06T02:58:42;7.67;;;6.27;;
50126;SDS011;36024;47.974;16.398;2022-11-06T08:21:41;5.97;;;4.20;;
50126;SDS011;36024;47.974;16.398;2022-11-06T08:24:10;5.93;;;4.17;;
50126;SDS011;36024;47.974;16.398;2022-11-06T08:26:47;5.23;;;3.50;;
50126;SDS011;36024;47.974;16.398;2022-11-06T08:29:14;8.53;;;4.17;;
50126;SDS011;36024;47.974;16.398;2022-11-06T08:31:41;5.07;;;3.70;;
50126;SDS011;36024;47.974;16.398;2022-11-06T08:34:09;7.00;;;3.90;;
50126;SDS011;36024;47.974;16.398;2022-11-06T08:36:44;6.30;;;4.07;;
50126;SDS011;36024;47.974;16.398;2022-11-06T08:39:18;5.37;;;3.87;;
50126;SDS011;36024;47.974;16.398;2022-11-06T08:41:51;6.27;;;3.90;;
50126;SDS011;36024;47.974;16.398;2022-11-06T08:44:39;5.57;;;3.37;;
50126;SDS011;36024;47.974;16.398;2022-11-06T08:47:13;6.17;;;3.60;;
50126;SDS011;36024;47.974;16.398;2022-11-06T08:49:49;6.00;;;3.50;;
50126;SDS011;36024;47.974;16.398;2022-11-06T08:52:19;5.40;;;3.67;;
50126;SDS011;36024;47.974;16.398;2022-11-06T08:54:48;5.53;;;3.33;;
50126;SDS011;36024;47.974;16.398;2022-11-06T08:57:22;5.77;;;3.20;;
50126;SDS011;36024;47.974;16.398;2022-11-06T08:59:59;6.30;;;3.37;;
50126;SDS011;36024;47.974;16.398;2022-11-06T12:36:19;3.50;;;1.80;;
50126;SDS011;36024;47.974;16.398;2022-11-06T12:38:54;3.37;;;1.60;;
50126;SDS011;36024;47.974;16.398;2022-11-06T12:41:28;3.87;;;1.67;;
50126;SDS011;36024;47.974;16.398;2022-11-06T12:43:56;4.20;;;1.67;;
50126;SDS011;36024;47.974;16.398;2022-11-06T12:46:37;3.00;;;1.80;;
50126;SDS011;36024;47.974;16.398;2022-11-06T12:51:41;4.37;;;1.90;;
50126;SDS011;36024;47.974;16.398;2022-11-06T12:57:08;2.73;;;1.40;;
50126;SDS011;36024;47.974;16.398;2022-11-06T13:05:32;4.90;;;1.90;;
50126;SDS011;36024;47.974;16.398;2022-11-06T13:08:33;5.03;;;1.57;;
50126;SDS011;36024;47.974;16.398;2022-11-06T13:11:16;3.33;;;1.53;;
50126;SDS011;36024;47.974;16.398;2022-11-06T13:19:27;4.80;;;1.53;;
50126;SDS011;36024;47.974;16.398;2022-11-06T13:30:25;5.07;;;1.90;;
50126;SDS011;36024;47.974;16.398;2022-11-06T13:33:07;4.53;;;1.87;;
50126;SDS011;36024;47.974;16.398;2022-11-06T13:35:40;3.93;;;1.80;;
50126;SDS011;36024;47.974;16.398;2022-11-06T13:38:11;2.63;;;1.73;;
50126;SDS011;36024;47.974;16.398;2022-11-06T13:40:44;4.47;;;1.80;;
50126;SDS011;36024;47.974;16.398;2022-11-06T13:43:35;2.90;;;1.83;;
50126;SDS011;36024;47.974;16.398;2022-11-06T13:51:50;3.60;;;1.87;;
50126;SDS011;36024;47.974;16.398;2022-11-06T13:57:22;3.37;;;1.57;;
50126;SDS011;36024;47.974;16.398;2022-11-06T14:00:22;2.83;;;1.33;;
50126;SDS011;36024;47.974;16.398;2022-11-06T14:11:27;3.90;;;1.50;;
50126;SDS011;36024;47.974;16.398;2022-11-06T14:14:00;3.63;;;1.67;;
50126;SDS011;36024;47.974;16.398;2022-11-06T14:16:35;3.50;;;1.50;;
50126;SDS011;36024;47.974;16.398;2022-11-06T14:19:05;3.23;;;1.80;;
50126;SDS011;36024;47.974;16.398;2022-11-06T14:24:04;5.33;;;2.80;;
50126;SDS011;36024;47.974;16.398;2022-11-06T14:34:46;3.90;;;2.07;;
50126;SDS011;36024;47.974;16.398;2022-11-06T14:42:29;3.60;;;1.93;;
50126;SDS011;36024;47.974;16.398;2022-11-06T14:45:01;5.53;;;2.63;;
50126;SDS011;36024;47.974;16.398;2022-11-06T14:47:41;4.13;;;2.13;;
50126;SDS011;36024;47.974;16.398;2022-11-06T14:52:44;7.20;;;2.20;;
50126;SDS011;36024;47.974;16.398;2022-11-06T14:55:21;5.23;;;2.37;;
50126;SDS011;36024;47.974;16.398;2022-11-06T14:57:51;2.60;;;2.10;;
50126;SDS011;36024;47.974;16.398;2022-11-06T15:03:01;4.83;;;2.03;;
50126;SDS011;36024;47.974;16.398;2022-11-06T15:05:29;4.90;;;2.00;;
50126;SDS011;36024;47.974;16.398;2022-11-06T15:07:57;5.03;;;2.13;;
50126;SDS011;36024;47.974;16.398;2022-11-06T15:15:44;3.10;;;2.10;;
50126;SDS011;36024;47.974;16.398;2022-11-06T15:18:12;2.87;;;1.93;;
50126;SDS011;36024;47.974;16.398;2022-11-06T15:20:42;2.90;;;2.00;;
50126;SDS011;36024;47.974;16.398;2022-11-06T15:27:11;4.63;;;2.10;;
50126;SDS011;36024;47.974;16.398;2022-11-06T15:29:40;3.70;;;2.17;;
50126;SDS011;36024;47.974;16.398;2022-11-06T15:32:09;4.03;;;1.93;;
50126;SDS011;36024;47.974;16.398;2022-11-06T15:34:42;3.27;;;1.80;;
50126;SDS011;36024;47.974;16.398;2022-11-06T15:37:12;4.27;;;2.40;;
50126;SDS011;36024;47.974;16.398;2022-11-06T15:40:29;4.47;;;2.43;;
50126;SDS011;36024;47.974;16.398;2022-11-06T15:44:04;4.07;;;2.73;;
50126;SDS011;36024;47.974;16.398;2022-11-06T15:47:17;4.20;;;2.40;;
50126;SDS011;36024;47.974;16.398;2022-11-06T15:50:26;4.43;;;3.10;;
50126;SDS011;36024;47.974;16.398;2022-11-06T15:53:21;5.07;;;3.20;;
50126;SDS011;36024;47.974;16.398;2022-11-06T15:56:01;14.43;;;10.67;;
50126;SDS011;36024;47.974;16.398;2022-11-06T15:58:32;17.67;;;15.87;;
50126;SDS011;36024;47.974;16.398;2022-11-06T16:01:03;14.07;;;11.73;;
50126;SDS011;36024;47.974;16.398;2022-11-06T16:03:47;16.43;;;13.67;;
50126;SDS011;36024;47.974;16.398;2022-11-06T16:06:16;14.47;;;10.97;;
50126;SDS011;36024;47.974;16.398;2022-11-06T16:08:45;16.30;;;13.70;;
50126;SDS011;36024;47.974;16.398;2022-11-06T16:11:14;12.53;;;10.33;;
50126;SDS011;36024;47.974;16.398;2022-11-06T16:13:42;11.87;;;8.30;;
50126;SDS011;36024;47.974;16.398;2022-11-06T16:19:42;11.83;;;8.33;;
50126;SDS011;36024;47.974;16.398;2022-11-06T16:22:15;19.73;;;14.17;;
50126;SDS011;36024;47.974;16.398;2022-11-06T16:24:54;24.23;;;20.77;;
50126;SDS011;36024;47.974;16.398;2022-11-06T16:28:12;20.13;;;15.03;;
50126;SDS011;36024;47.974;16.398;2022-11-06T16:30:59;20.70;;;14.47;;
50126;SDS011;36024;47.974;16.398;2022-11-06T16:33:37;18.90;;;14.10;;
50126;SDS011;36024;47.974;16.398;2022-11-06T16:36:56;19.50;;;12.57;;
50126;SDS011;36024;47.974;16.398;2022-11-06T16:44:16;18.40;;;14.37;;
50126;SDS011;36024;47.974;16.398;2022-11-06T16:49:50;17.47;;;12.77;;
50126;SDS011;36024;47.974;16.398;2022-11-06T16:52:44;15.97;;;11.60;;
50126;SDS011;36024;47.974;16.398;2022-11-06T16:55:35;13.70;;;10.13;;
50126;SDS011;36024;47.974;16.398;2022-11-06T16:58:12;13.47;;;9.60;;
50126;SDS011;36024;47.974;16.398;2022-11-06T17:00:57;11.53;;;9.57;;
50126;SDS011;36024;47.974;16.398;2022-11-06T17:03:39;12.70;;;9.83;;
50126;SDS011;36024;47.974;16.398;2022-11-06T17:06:44;12.33;;;9.57;;
50126;SDS011;36024;47.974;16.398;2022-11-06T17:16:54;18.00;;;12.00;;
50126;SDS011;36024;47.974;16.398;2022-11-06T17:20:10;12.17;;;8.40;;
50126;SDS011;36024;47.974;16.398;2022-11-06T17:23:03;10.33;;;8.47;;
50126;SDS011;36024;47.974;16.398;2022-11-06T17:25:47;11.33;;;7.93;;
50126;SDS011;36024;47.974;16.398;2022-11-06T17:28:22;10.50;;;8.10;;
